• Join FlightAware (Why Join?)
  • Login
  • US Flag 
07:19AM EDT


 

Airport Tracker/Info


-or-


 

Live Flight TrackerFlight Track Log ✈ N164CA ✈ 20-Jun-2013 ✈ KMCN - KTLH

Flight Track Log - Related Links

Times and Time Zones

All times are in EDT time to prevent confusion due to time zone crossing. See the N164CA flight status page for this flight to view local times or setup timezone preferences in your user account.

Time Position Orientation Groundspeed Altitude Reporting Facility
EDT Latitude Longitude Course Direction KTS MPH feet Rate Location/Type
10:30AM 32.6000 -83.6667 203° Southwest 116 133 3,500  Level Atlanta TRACON
10:31AM 32.5667 -83.6667 180° South 111 128 4,200 600 Climbing Atlanta TRACON
10:32AM 32.5500 -83.6667 180° South 117 135 4,700 480 Climbing Atlanta TRACON
10:34AM 32.5021 -83.7089 192° South  Level Estimated
10:34AM 32.4882 -83.6667 180° South  Level FlightAware Approximate
10:35AM 32.4500 -83.7000 180° South 137 158 6,200  Level Atlanta TRACON
10:36AM 32.4000 -83.7000 180° South 152 175 5,900 -120 Descending Atlanta TRACON
10:38AM 32.3081 -83.7014 181° South 163 188 6,000  Climbing Jacksonville Center
10:39AM 32.2664 -83.7008 179° South 158 182 6,000  Level Jacksonville Center
10:40AM 32.2244 -83.7006 180° South 158 182 6,000  Level Jacksonville Center
10:41AM 32.1828 -83.6953 174° South 158 182 6,000 -60 Level Jacksonville Center
10:42AM 32.1389 -83.6997 185° South 158 182 5,900  Descending Jacksonville Center
10:43AM 32.0972 -83.7092 191° South 158 182 6,000  Climbing Jacksonville Center
10:44AM 32.0594 -83.7211 195° South 158 182 6,000  Level Jacksonville Center
10:45AM 32.0175 -83.7356 196° South 158 182 6,000  Level Jacksonville Center
10:46AM 31.9778 -83.7450 191° South 158 182 6,000  Level Jacksonville Center
10:47AM 31.9381 -83.7592 197° South 153 176 6,000  Level Jacksonville Center
10:48AM 31.9003 -83.7783 203° Southwest 153 176 6,000  Level Jacksonville Center
10:49AM 31.8625 -83.8000 206° Southwest 153 176 6,100  Climbing Jacksonville Center
10:50AM 31.8228 -83.8167 200° South 158 182 6,000 -120 Descending Jacksonville Center
10:51AM 31.7811 -83.8261 191° South 153 176 5,900 -60 Descending Jacksonville Center
10:52AM 31.7414 -83.8381 194° South 148 170 5,900  Level Jacksonville Center
10:53AM 31.7036 -83.8597 206° Southwest 148 170 5,900  Level Jacksonville Center
10:54AM 31.6658 -83.8786 203° Southwest 153 176 6,000  Climbing Jacksonville Center
10:55AM 31.6261 -83.8906 194° South 153 176 6,000  Level Jacksonville Center
10:56AM 31.5842 -83.8972 188° South 153 176 6,000 -60 Level Jacksonville Center
10:57AM 31.5444 -83.9092 194° South 148 170 5,900 -60 Descending Jacksonville Center
10:58AM 31.5047 -83.9233 197° South 148 170 5,900  Level Jacksonville Center
10:59AM 31.4689 -83.9447 207° Southwest 148 170 5,900  Level Jacksonville Center
11:00AM 31.4292 -83.9589 197° South 148 170 6,000 60 Climbing Jacksonville Center
11:01AM 31.3917 -83.9708 195° South 148 170 6,100  Climbing Jacksonville Center
11:02AM 31.3517 -83.9850 197° South 148 170 6,100 -60 Level Jacksonville Center
11:03AM 31.3097 -83.9989 196° South 148 170 6,000 -60 Descending Jacksonville Center
11:04AM 31.2722 -84.0106 195° South 148 170 6,000  Level Jacksonville Center
11:05AM 31.2325 -84.0247 197° South 148 170 6,100  Climbing Jacksonville Center
11:06AM 31.1947 -84.0389 198° South 148 170 6,000  Descending Jacksonville Center
11:07AM 31.1569 -84.0556 201° Southwest 148 170 6,100  Climbing Jacksonville Center
11:08AM 31.1172 -84.0694 197° South 148 170 6,100 -60 Level Jacksonville Center
11:09AM 31.0814 -84.0861 202° Southwest 148 170 6,000  Descending Jacksonville Center
11:10AM 31.0417 -84.0978 194° South 148 170 6,100  Climbing Jacksonville Center
11:11AM 31.0039 -84.1117 197° South 148 170 6,000 -60 Descending Jacksonville Center
11:12AM 30.9642 -84.1281 199° South 148 170 6,000 -120 Level Jacksonville Center
11:13AM 30.9286 -84.1469 205° Southwest 148 170 5,800 -240 Descending Jacksonville Center
11:14AM 30.8886 -84.1636 200° South 148 170 5,600 -300 Descending Jacksonville Center
11:15AM 30.8489 -84.1725 191° South 148 170 5,300 -360 Descending Jacksonville Center
11:16AM 30.8092 -84.1889 200° South 148 170 4,900 -360 Descending Jacksonville Center
11:17AM 30.7753 -84.2103 208° Southwest 148 170 4,600 -300 Descending Jacksonville Center
11:19AM 30.7209 -84.2255 194° South  Level FlightAware Approximate
11:26AM 30.4555 -84.3211 199° South  Level FlightAware Approximate
11:27AM 30.4177 -84.3362 199° South  Level FlightAware Approximate
11:28AM 30.3967 -84.3509 199° South  Level Estimated
11:29AM 30.3967 -84.3509 199° South  Level Estimated
11:30AM 30.3967 -84.3509 199° South  Level Estimated
11:31AM 30.3967 -84.3509 199° South  Level Estimated
11:32AM 30.3967 -84.3509 199° South  Level Estimated
11:33AM 30.3967 -84.3509 199° South  Level Estimated
11:34AM 30.3967 -84.3509 199° South  Level Estimated
11:35AM 30.3967 -84.3509 199° South  Level Estimated
11:36AM 30.3967 -84.3509 199° South  Level Estimated